Time;durP1;ratioP1;P1;durP2;ratioP2;P2;SDS_P1;SDS_P2;PMS_P1;PMS_P2;Temp;Humidity;BMP_temperature;BMP_pressure;BME280_temperature;BME280_humidity;BME280_pressure;Samples;Min_cycle;Max_cycle;Signal;HPM_P1;HPM_P2
2022/05/28 00:01:21;;;;;;;11.35;3.55;;;;;;;16.23;46.26;102043.28;5134989;27;20051;-62
2022/05/28 00:03:54;;;;;;;9.43;3.38;;;;;;;16.25;45.93;102038.59;5134720;27;20366;-62
2022/05/28 00:06:24;;;;;;;13.07;3.60;;;;;;;16.27;46.37;102036.63;5134932;27;20031;-62
2022/05/28 00:08:51;;;;;;;10.68;3.67;;;;;;;16.27;46.28;102034.78;5134985;27;20039;-62
2022/05/28 00:11:24;;;;;;;14.05;3.45;;;;;;;16.28;46.32;102030.22;5134811;27;20047;-61
2022/05/28 00:13:54;;;;;;;10.68;2.67;;;;;;;16.27;46.32;102029.38;5134979;27;20035;-62
2022/05/28 00:16:21;;;;;;;11.43;3.28;;;;;;;16.26;46.37;102030.34;5134151;27;20061;-63
2022/05/28 00:18:52;;;;;;;8.07;3.55;;;;;;;16.22;46.15;102023.44;5134423;27;20070;-61
2022/05/28 00:21:20;;;;;;;12.13;3.08;;;;;;;16.19;46.01;102026.38;5134887;27;20087;-61
2022/05/28 00:23:54;;;;;;;8.07;3.22;;;;;;;16.16;46.16;102032.03;5134697;27;20477;-62
2022/05/28 00:26:22;;;;;;;11.02;3.10;;;;;;;16.14;46.13;102023.16;5134516;27;20401;-62
2022/05/28 00:28:50;;;;;;;15.48;3.58;;;;;;;16.12;46.26;102025.13;5133804;27;20289;-61
2022/05/28 00:31:17;;;;;;;10.07;3.45;;;;;;;16.10;46.45;102027.06;5134528;27;20039;-62
2022/05/28 00:33:44;;;;;;;11.38;2.85;;;;;;;16.08;46.17;102029.03;5134304;27;20500;-61
2022/05/28 00:36:11;;;;;;;8.80;2.90;;;;;;;16.04;46.52;102025.69;5134364;27;20051;-61
2022/05/28 00:38:40;;;;;;;9.38;3.28;;;;;;;16.02;46.45;102021.38;5134426;27;20083;-62
2022/05/28 00:41:07;;;;;;;13.18;3.97;;;;;;;16.01;46.33;102023.22;5134339;27;20039;-61
2022/05/28 00:43:34;;;;;;;8.43;3.00;;;;;;;15.99;46.34;102019.75;5133915;27;20134;-61
2022/05/28 00:46:08;;;;;;;11.65;2.90;;;;;;;15.98;46.59;102003.63;5134485;27;20159;-62
2022/05/28 00:48:40;;;;;;;7.38;2.90;;;;;;;15.99;46.45;102008.06;5133546;27;20035;-62
2022/05/28 00:51:21;;;;;;;10.40;3.40;;;;;;;15.96;46.67;102003.72;5134052;27;20057;-61
2022/05/28 00:53:50;;;;;;;11.82;3.78;;;;;;;15.94;46.58;102002.13;5134216;27;20046;-63
2022/05/28 00:56:16;;;;;;;11.13;3.95;;;;;;;15.92;46.84;102006.78;5133949;27;20493;-61
2022/05/28 00:58:43;;;;;;;10.43;3.20;;;;;;;15.92;46.77;102001.38;5133868;27;20469;-60
2022/05/28 01:01:11;;;;;;;15.43;3.78;;;;;;;15.91;46.95;102005.94;5133644;27;20050;-62
2022/05/28 01:04:10;;;;;;;8.15;3.53;;;;;;;15.91;46.83;102013.19;5133951;27;20058;-61
2022/05/28 01:07:23;;;;;;;13.07;4.13;;;;;;;15.88;47.30;102004.31;5112053;27;20047;-61
2022/05/28 01:10:12;;;;;;;10.32;3.70;;;;;;;15.89;47.22;102003.34;5132972;27;20065;-61
2022/05/28 01:12:55;;;;;;;13.48;3.83;;;;;;;15.87;47.28;102005.28;5133729;27;20047;-61
2022/05/28 01:15:27;;;;;;;9.93;3.63;;;;;;;15.87;47.08;102007.13;5133510;27;20043;-61
2022/05/28 01:18:07;;;;;;;9.80;3.58;;;;;;;15.86;47.20;102006.28;5133279;27;20424;-61
2022/05/28 01:20:50;;;;;;;11.57;3.97;;;;;;;15.82;47.47;102006.63;5133853;27;20043;-61
2022/05/28 01:23:44;;;;;;;11.80;3.58;;;;;;;15.79;47.45;101998.72;5124777;27;20050;-61
2022/05/28 01:26:20;;;;;;;14.82;3.97;;;;;;;15.75;47.36;101999.94;5128307;27;20444;-61
2022/05/28 01:29:00;;;;;;;10.68;3.40;;;;;;;15.70;47.47;101996.69;5123290;27;20437;-60
2022/05/28 01:31:29;;;;;;;9.93;3.33;;;;;;;15.69;47.45;102003.09;5134365;27;20047;-61
2022/05/28 01:34:03;;;;;;;11.75;3.67;;;;;;;15.66;47.67;102001.47;5134211;27;20039;-61
2022/05/28 01:36:32;;;;;;;10.20;3.50;;;;;;;15.68;47.83;101994.09;5133831;27;20493;-61
2022/05/28 01:38:59;;;;;;;12.88;3.83;;;;;;;15.70;47.69;102002.13;5115939;27;20388;-61
2022/05/28 01:41:29;;;;;;;10.73;3.40;;;;;;;15.70;47.94;102002.97;5133643;27;20053;-60
2022/05/28 01:44:01;;;;;;;7.95;3.55;;;;;;;15.68;47.76;101995.94;5116084;27;20047;-61
2022/05/28 01:46:29;;;;;;;7.53;3.53;;;;;;;15.66;47.78;101996.06;5133408;27;20043;-61
2022/05/28 01:48:58;;;;;;;14.30;4.28;;;;;;;15.63;47.99;101996.28;5134047;27;20058;-61
2022/05/28 01:51:32;;;;;;;10.82;3.45;;;;;;;15.59;48.07;101997.47;5133173;27;20039;-61
2022/05/28 01:54:11;;;;;;;12.68;3.95;;;;;;;15.57;48.07;101994.88;5133559;27;20039;-61
2022/05/28 01:56:43;;;;;;;8.82;3.28;;;;;;;15.57;48.21;101993.97;5133339;27;20134;-61
2022/05/28 01:59:12;;;;;;;15.57;3.80;;;;;;;15.57;48.29;101997.56;5133215;27;20043;-61
2022/05/28 02:01:39;;;;;;;11.90;3.20;;;;;;;15.56;48.22;102006.63;5133056;27;20058;-61
2022/05/28 02:04:08;;;;;;;6.97;3.63;;;;;;;15.55;48.37;102006.75;5133129;27;20047;-60
2022/05/28 02:06:36;;;;;;;9.73;4.18;;;;;;;15.55;48.12;102006.75;5132874;27;20062;-61
2022/05/28 02:09:06;;;;;;;11.95;3.22;;;;;;;15.53;48.13;102006.00;5132939;27;20042;-61
2022/05/28 02:11:51;;;;;;;9.27;3.25;;;;;;;15.51;48.48;102003.41;5133369;27;20050;-61
2022/05/28 02:14:20;;;;;;;12.95;4.45;;;;;;;15.53;48.42;102004.16;5133100;27;20043;-62
2022/05/28 02:17:17;;;;;;;8.90;3.90;;;;;;;15.49;48.38;102002.66;5132672;28;20078;-61
2022/05/28 02:20:12;;;;;;;7.70;3.28;;;;;;;15.46;48.38;101991.19;5121539;28;20045;-62
2022/05/28 02:23:08;;;;;;;8.35;3.20;;;;;;;15.43;48.45;101983.28;5133106;28;20485;-62
2022/05/28 02:25:50;;;;;;;11.20;4.03;;;;;;;15.44;48.45;101987.72;5132325;28;20039;-62
2022/05/28 02:28:17;;;;;;;12.68;4.25;;;;;;;15.42;48.25;101978.84;5116005;28;20046;-62
2022/05/28 02:30:53;;;;;;;14.48;4.20;;;;;;;15.38;48.54;101980.06;5132781;28;20043;-62
2022/05/28 02:33:20;;;;;;;9.50;3.60;;;;;;;15.37;48.92;101979.19;5132474;28;20442;-61
2022/05/28 02:35:49;;;;;;;9.15;3.40;;;;;;;15.36;48.73;101973.91;5132777;28;20035;-61
2022/05/28 02:38:17;;;;;;;9.98;4.15;;;;;;;15.34;48.75;101967.72;5131913;28;20066;-61
2022/05/28 02:40:43;;;;;;;7.93;3.80;;;;;;;15.31;48.66;101967.94;5132910;28;20039;-61
2022/05/28 02:43:11;;;;;;;13.35;4.40;;;;;;;15.26;48.92;101966.44;5114314;28;20042;-61
2022/05/28 02:45:39;;;;;;;9.50;4.20;;;;;;;15.25;48.78;101964.72;5132274;28;20043;-61
2022/05/28 02:48:07;;;;;;;9.40;3.75;;;;;;;15.24;48.93;101967.53;5132430;28;20043;-61
2022/05/28 02:50:33;;;;;;;14.25;4.03;;;;;;;15.21;48.99;101963.22;5110407;28;20040;-60
2022/05/28 02:53:01;;;;;;;10.50;3.80;;;;;;;15.19;48.81;101959.75;5126310;28;20039;-61
2022/05/28 02:55:30;;;;;;;8.15;3.60;;;;;;;15.16;48.99;101959.97;5132238;28;20035;-60
2022/05/28 02:57:56;;;;;;;13.25;3.85;;;;;;;15.12;48.96;101969.28;5132492;28;20058;-61
2022/05/28 03:00:23;;;;;;;7.28;3.30;;;;;;;15.08;49.29;101969.63;5133414;28;20043;-61
2022/05/28 03:02:50;;;;;;;8.27;3.80;;;;;;;15.05;49.22;101968.00;5133401;28;20516;-61
2022/05/28 03:05:19;;;;;;;14.52;4.30;;;;;;;15.02;49.26;101976.34;5133362;28;20058;-61
2022/05/28 03:07:46;;;;;;;9.90;4.18;;;;;;;14.99;49.21;101973.84;5133824;28;20035;-62
2022/05/28 03:10:13;;;;;;;8.07;3.90;;;;;;;14.96;49.35;101981.31;5133735;28;20039;-61
2022/05/28 03:12:40;;;;;;;10.93;3.97;;;;;;;14.94;49.60;101978.72;5134299;28;20396;-62
2022/05/28 03:15:08;;;;;;;10.00;3.65;;;;;;;14.96;49.77;101984.91;5134025;28;20448;-61
2022/05/28 03:17:35;;;;;;;9.80;3.80;;;;;;;14.97;49.63;101983.91;5134697;28;20099;-61
2022/05/28 03:20:02;;;;;;;14.13;3.60;;;;;;;14.98;49.79;101984.78;5137186;28;20040;-61
2022/05/28 03:22:29;;;;;;;12.15;3.63;;;;;;;14.97;49.79;101989.34;5135049;28;20039;-62
2022/05/28 03:24:57;;;;;;;11.18;4.10;;;;;;;14.96;50.21;101984.91;5132713;28;20500;-61
2022/05/28 03:27:24;;;;;;;11.30;3.70;;;;;;;14.96;50.04;101979.50;5132705;28;20516;-61
2022/05/28 03:29:50;;;;;;;7.03;3.90;;;;;;;14.98;50.38;101984.78;5132968;28;20046;-61
2022/05/28 03:32:17;;;;;;;16.13;3.50;;;;;;;14.97;50.31;101981.22;5135421;27;20035;-62
2022/05/28 03:34:45;;;;;;;11.82;4.18;;;;;;;14.96;50.17;101986.75;5135562;27;20035;-61
2022/05/28 03:37:11;;;;;;;13.23;3.90;;;;;;;14.92;50.48;101978.84;5135704;27;20046;-61
2022/05/28 03:39:38;;;;;;;17.23;4.38;;;;;;;14.90;50.47;101982.63;5136220;27;20031;-61
2022/05/28 03:42:05;;;;;;;13.20;4.13;;;;;;;14.90;50.43;101986.19;5136022;27;20489;-61
2022/05/28 03:44:32;;;;;;;14.85;4.10;;;;;;;14.89;50.63;101984.47;5135743;27;20039;-61
2022/05/28 03:47:00;;;;;;;10.70;4.28;;;;;;;14.87;50.54;101988.25;5135672;27;20035;-62
2022/05/28 03:49:31;;;;;;;11.13;4.03;;;;;;;14.86;50.93;101984.69;5134807;27;20066;-61
2022/05/28 03:51:57;;;;;;;10.18;3.92;;;;;;;14.86;50.98;101994.59;5135586;27;20046;-61
2022/05/28 03:54:27;;;;;;;13.55;4.38;;;;;;;14.86;51.14;102000.91;5135369;27;20436;-61
2022/05/28 03:56:59;;;;;;;10.20;3.83;;;;;;;14.85;51.19;101992.88;5120818;27;20051;-61
2022/05/28 03:59:25;;;;;;;11.65;3.95;;;;;;;14.83;51.12;101992.97;5135256;27;20047;-60
2022/05/28 04:01:53;;;;;;;9.68;4.07;;;;;;;14.82;51.20;101998.50;5135266;27;20043;-60
2022/05/28 04:04:23;;;;;;;10.60;3.63;;;;;;;14.81;51.48;102007.59;5135283;27;20043;-61
2022/05/28 04:06:49;;;;;;;6.50;3.30;;;;;;;14.82;51.44;102003.91;5135102;27;20047;-61
2022/05/28 04:09:16;;;;;;;10.40;3.42;;;;;;;14.82;51.79;102002.06;5134744;27;20051;-61
2022/05/28 04:11:42;;;;;;;11.88;5.03;;;;;;;14.83;51.75;102005.66;5134984;27;20043;-61
2022/05/28 04:14:10;;;;;;;11.32;3.67;;;;;;;14.83;51.83;102005.66;5135389;27;20043;-60
2022/05/28 04:16:37;;;;;;;11.18;3.70;;;;;;;14.85;51.98;102014.50;5134615;27;20055;-60
2022/05/28 04:19:03;;;;;;;15.82;3.65;;;;;;;14.86;52.13;102011.75;5128308;27;20044;-60
2022/05/28 04:21:30;;;;;;;10.50;3.65;;;;;;;14.91;52.28;102012.28;5127821;27;20039;-60
2022/05/28 04:23:58;;;;;;;13.93;4.00;;;;;;;14.97;52.15;102015.53;5134820;27;20651;-60
2022/05/28 04:26:24;;;;;;;13.27;3.20;;;;;;;15.00;52.24;102018.88;5135363;27;20047;-60
2022/05/28 04:28:51;;;;;;;13.32;3.33;;;;;;;15.04;52.42;102014.09;5134850;27;20031;-61
2022/05/28 04:31:17;;;;;;;15.63;4.10;;;;;;;15.07;52.25;102017.47;5134288;27;20040;-60
2022/05/28 04:33:44;;;;;;;13.15;4.20;;;;;;;15.10;52.53;102021.78;5134192;27;20473;-60
2022/05/28 04:36:11;;;;;;;11.93;3.63;;;;;;;15.13;52.50;102022.44;5134365;27;20096;-62
2022/05/28 04:38:38;;;;;;;11.73;4.03;;;;;;;15.15;52.87;102023.19;5134295;27;20041;-62
2022/05/28 04:41:04;;;;;;;14.57;4.07;;;;;;;15.17;52.64;102021.22;5134053;27;20035;-61
2022/05/28 04:43:31;;;;;;;15.02;4.43;;;;;;;15.21;52.76;102021.88;5132672;27;20396;-61
2022/05/28 04:46:02;;;;;;;9.90;3.90;;;;;;;15.24;52.89;102025.22;5133963;27;20058;-61
2022/05/28 04:48:29;;;;;;;16.50;3.70;;;;;;;15.30;53.23;102020.34;5133677;27;20079;-61
2022/05/28 04:50:55;;;;;;;10.18;3.90;;;;;;;15.34;53.25;102019.16;5134110;27;20039;-61
2022/05/28 04:53:21;;;;;;;10.98;3.38;;;;;;;15.36;53.00;102026.19;5133471;27;20046;-61
2022/05/28 04:55:51;;;;;;;21.92;4.18;;;;;;;15.39;53.35;102020.56;5133983;27;20043;-60
2022/05/28 04:58:18;;;;;;;11.90;3.15;;;;;;;15.43;53.25;102032.88;5133386;27;20039;-61
2022/05/28 05:00:46;;;;;;;13.15;3.63;;;;;;;15.46;53.23;102026.38;5133582;27;20058;-60
2022/05/28 05:03:14;;;;;;;9.95;2.97;;;;;;;15.47;53.67;102026.28;5133448;27;20043;-61
2022/05/28 05:05:43;;;;;;;15.45;3.80;;;;;;;15.52;53.68;102034.91;5133497;27;20484;-61
2022/05/28 05:08:09;;;;;;;9.75;3.30;;;;;;;15.56;53.51;102031.00;5133497;27;20042;-62
2022/05/28 05:10:36;;;;;;;14.02;3.63;;;;;;;15.59;53.77;102029.94;5133276;27;20473;-61
2022/05/28 05:13:03;;;;;;;13.95;3.05;;;;;;;15.62;53.83;102032.47;5132837;27;20041;-62
2022/05/28 05:15:31;;;;;;;11.70;3.22;;;;;;;15.66;53.98;102039.38;5129321;27;20032;-62
2022/05/28 05:17:58;;;;;;;11.48;3.00;;;;;;;15.70;54.01;102043.59;5132214;27;20054;-61
2022/05/28 05:20:24;;;;;;;9.20;2.60;;;;;;;15.73;54.04;102035.25;5115751;27;20035;-61
2022/05/28 05:22:55;;;;;;;13.00;3.20;;;;;;;15.78;53.82;102041.19;5130301;27;20032;-61
2022/05/28 05:25:23;;;;;;;11.43;3.47;;;;;;;15.81;53.99;102034.69;5132445;27;20069;-62
2022/05/28 05:27:50;;;;;;;15.32;3.28;;;;;;;15.85;54.05;102041.59;5130215;27;20078;-62
2022/05/28 05:30:17;;;;;;;20.13;3.53;;;;;;;15.88;54.07;102042.25;5132754;27;20045;-61
2022/05/28 05:32:43;;;;;;;12.98;3.00;;;;;;;15.92;53.98;102039.31;5130304;27;20031;-62
2022/05/28 05:35:11;;;;;;;9.45;2.70;;;;;;;15.97;53.97;102034.41;5129808;27;20036;-61
2022/05/28 05:37:37;;;;;;;11.38;2.92;;;;;;;16.00;53.74;102036.88;5132875;27;20031;-62
2022/05/28 05:40:05;;;;;;;11.10;2.67;;;;;;;16.03;53.90;102037.50;5132607;27;20070;-61
2022/05/28 05:42:31;;;;;;;12.35;2.80;;;;;;;16.06;53.90;102037.28;5129054;27;20405;-61
2022/05/28 05:45:03;;;;;;;8.18;2.33;;;;;;;16.09;53.72;102047.91;5129040;27;20050;-61
2022/05/28 05:47:29;;;;;;;8.52;2.42;;;;;;;16.11;53.18;102045.06;5127503;27;20036;-61
2022/05/28 05:49:56;;;;;;;8.40;2.10;;;;;;;16.14;53.13;102048.41;5132637;27;20035;-61
2022/05/28 05:52:23;;;;;;;11.05;2.40;;;;;;;16.21;53.31;102041.53;5132807;27;20584;-61
2022/05/28 05:54:54;;;;;;;10.20;2.33;;;;;;;16.28;52.74;102047.38;5131938;27;20039;-61
2022/05/28 05:57:21;;;;;;;10.38;2.20;;;;;;;16.35;52.62;102045.03;5124962;27;20500;-61
2022/05/28 05:59:47;;;;;;;9.98;2.10;;;;;;;16.39;52.57;102054.72;5132498;27;20043;-62
2022/05/28 06:02:15;;;;;;;7.43;2.00;;;;;;;16.43;52.28;102053.50;5129777;27;20134;-61
2022/05/28 06:04:46;;;;;;;8.00;1.95;;;;;;;16.49;52.32;102053.88;5129234;27;20473;-61
2022/05/28 06:07:12;;;;;;;6.70;1.70;;;;;;;16.51;51.87;102049.22;5132348;27;20051;-61
2022/05/28 06:09:40;;;;;;;8.40;1.40;;;;;;;16.54;51.77;102048.09;5132698;27;20043;-62
2022/05/28 06:12:07;;;;;;;5.82;1.67;;;;;;;16.57;51.49;102057.84;5131923;27;20057;-61
2022/05/28 06:14:38;;;;;;;6.07;1.80;;;;;;;16.59;51.31;102062.19;5132752;27;20408;-60
2022/05/28 06:17:04;;;;;;;8.02;2.03;;;;;;;16.66;51.72;102058.03;5131418;27;20061;-61
2022/05/28 06:19:31;;;;;;;9.30;1.80;;;;;;;16.78;51.69;102058.94;5109592;28;20451;-61
2022/05/28 06:22:01;;;;;;;11.75;1.83;;;;;;;16.95;51.13;102052.19;5111095;28;20035;-61
2022/05/28 06:24:29;;;;;;;8.27;1.88;;;;;;;17.09;51.19;102055.56;5126937;27;20062;-61
2022/05/28 06:27:00;;;;;;;9.25;2.03;;;;;;;17.28;50.98;102059.53;5132496;28;20054;-61
2022/05/28 06:29:28;;;;;;;8.27;1.73;;;;;;;17.37;50.73;102054.22;5125183;28;20551;-62
2022/05/28 06:31:54;;;;;;;6.45;1.27;;;;;;;17.48;49.96;102066.94;5124703;28;20050;-61
2022/05/28 06:34:24;;;;;;;5.78;1.75;;;;;;;17.58;50.03;102064.34;5119963;28;20041;-61
2022/05/28 06:36:51;;;;;;;7.22;1.60;;;;;;;17.73;49.72;102066.69;5127269;28;20036;-60
2022/05/28 06:39:17;;;;;;;5.10;1.42;;;;;;;17.86;48.99;102069.28;5131010;28;20039;-62
2022/05/28 06:41:44;;;;;;;9.75;1.30;;;;;;;17.93;48.54;102073.22;5129892;27;20444;-61
2022/05/28 06:44:17;;;;;;;5.68;1.23;;;;;;;17.98;48.33;102071.00;5106804;28;20042;-62
2022/05/28 06:46:43;;;;;;;5.32;1.42;;;;;;;18.00;47.77;102065.44;5121102;28;20417;-61
2022/05/28 06:49:10;;;;;;;7.28;1.35;;;;;;;17.98;47.49;102070.13;5132654;28;20036;-62
2022/05/28 06:51:37;;;;;;;3.97;1.50;;;;;;;17.98;47.68;102071.00;5132612;28;20040;-62
2022/05/28 06:54:07;;;;;;;8.77;1.35;;;;;;;17.98;46.96;102071.00;5132748;28;20062;-62
2022/05/28 06:56:34;;;;;;;5.82;1.25;;;;;;;18.00;46.96;102063.59;5133134;28;20040;-61
2022/05/28 06:59:01;;;;;;;3.63;1.10;;;;;;;18.03;46.64;102068.75;5132849;27;20040;-62
2022/05/28 07:01:34;;;;;;;6.88;1.48;;;;;;;18.16;46.84;102070.47;5132933;28;20046;-61
2022/05/28 07:04:05;;;;;;;4.53;1.27;;;;;;;18.26;46.06;102074.13;5133166;28;20401;-61
2022/05/28 07:06:33;;;;;;;5.70;1.10;;;;;;;18.32;45.84;102077.19;5133842;27;20058;-61
2022/05/28 07:09:00;;;;;;;5.60;1.65;;;;;;;18.42;46.23;102078.16;5136283;27;20381;-61
2022/05/28 07:11:27;;;;;;;5.78;1.25;;;;;;;18.52;45.64;102085.53;5136467;27;20050;-61
2022/05/28 07:13:57;;;;;;;6.28;1.27;;;;;;;18.62;45.55;102083.81;5136772;27;20039;-62
2022/05/28 07:16:24;;;;;;;4.50;1.33;;;;;;;18.72;45.40;102082.03;5136449;27;20054;-62
2022/05/28 07:18:51;;;;;;;6.80;1.30;;;;;;;18.79;45.15;102087.81;5136573;27;20050;-62
2022/05/28 07:21:17;;;;;;;5.97;1.38;;;;;;;18.80;44.97;102082.22;5136575;27;20035;-61
2022/05/28 07:23:44;;;;;;;5.10;1.40;;;;;;;18.73;44.14;102083.75;5136341;27;20054;-62
2022/05/28 07:26:14;;;;;;;6.43;1.33;;;;;;;18.68;44.31;102084.16;5136178;27;20047;-61
2022/05/28 07:28:44;;;;;;;4.20;1.55;;;;;;;18.74;44.01;102090.91;5122759;27;20046;-62
2022/05/28 07:31:18;;;;;;;8.68;1.52;;;;;;;18.84;44.57;102088.28;5135725;27;20489;-62
2022/05/28 07:33:46;;;;;;;6.60;1.17;;;;;;;18.92;43.60;102089.34;5123974;27;20047;-61
2022/05/28 07:36:22;;;;;;;;;;;;;;;18.94;43.58;102086.47;5135774;27;20476;-62
2022/05/28 07:38:49;;;;;;;5.00;1.17;;;;;;;19.00;43.00;102086.81;5136334;27;19923;-61
2022/05/28 07:41:18;;;;;;;3.35;1.17;;;;;;;18.97;42.99;102080.75;5132602;27;20543;-62
2022/05/28 07:43:45;;;;;;;6.05;1.80;;;;;;;18.98;42.61;102082.50;5115653;28;20421;-63
2022/05/28 07:46:18;;;;;;;6.15;1.70;;;;;;;19.05;42.58;102086.41;5130395;27;20497;-64
2022/05/28 07:48:45;;;;;;;4.80;1.05;;;;;;;19.23;42.98;102086.66;5124189;27;20474;-64
2022/05/28 07:51:12;;;;;;;4.57;1.20;;;;;;;19.38;42.93;102079.00;5135988;27;20043;-64
2022/05/28 07:53:39;;;;;;;5.88;1.27;;;;;;;19.51;42.58;102080.50;5134405;27;20043;-62
2022/05/28 07:56:08;;;;;;;5.22;1.45;;;;;;;19.69;42.63;102086.19;5116571;27;20047;-63
2022/05/28 07:58:35;;;;;;;6.13;1.20;;;;;;;19.86;42.15;102084.69;5134559;27;20039;-62
2022/05/28 08:01:02;;;;;;;10.52;1.27;;;;;;;19.95;41.78;102084.69;5134721;27;20042;-62
2022/05/28 08:03:29;;;;;;;3.50;1.30;;;;;;;20.02;42.11;102081.41;5134659;27;20552;-62
2022/05/28 08:05:57;;;;;;;4.97;1.13;;;;;;;20.09;41.89;102083.47;5134623;27;20047;-63
2022/05/28 08:08:26;;;;;;;5.53;1.20;;;;;;;20.11;41.56;102072.41;5134902;27;20039;-62
2022/05/28 08:10:53;;;;;;;4.38;1.38;;;;;;;20.11;41.54;102066.97;5134347;27;20039;-62
2022/05/28 08:13:22;;;;;;;8.60;1.33;;;;;;;20.13;41.13;102073.13;5134052;27;20397;-62
2022/05/28 08:15:56;;;;;;;7.97;1.63;;;;;;;20.16;40.93;102073.72;5135046;27;20050;-63
2022/05/28 08:18:25;;;;;;;5.72;1.35;;;;;;;20.16;40.90;102072.84;5134475;27;20039;-63
2022/05/28 08:23:40;;;;;;;7.10;1.30;;;;;;;20.26;40.79;102077.31;5134690;27;20043;-63
2022/05/28 08:26:13;;;;;;;6.80;1.40;;;;;;;20.28;40.30;102069.84;5135283;27;20057;-62
2022/05/28 08:28:41;;;;;;;6.32;2.00;;;;;;;20.36;40.38;102071.00;5135134;27;20051;-62
2022/05/28 08:31:08;;;;;;;8.93;1.52;;;;;;;20.50;40.32;102063.28;5130002;27;20228;-62
2022/05/28 08:33:35;;;;;;;3.83;1.10;;;;;;;20.59;40.08;102069.75;5127233;27;20509;-63
2022/05/28 08:36:02;;;;;;;6.57;1.50;;;;;;;20.67;39.83;102058.97;5134146;27;20042;-63
2022/05/28 08:38:28;;;;;;;7.15;1.10;;;;;;;20.75;39.31;102069.16;5133929;27;20036;-62
2022/05/28 08:41:07;;;;;;;7.95;1.50;;;;;;;20.76;39.16;102071.75;5133679;27;20039;-62
2022/05/28 08:43:42;;;;;;;6.53;1.20;;;;;;;20.74;38.66;102071.03;5133406;27;20028;-63
2022/05/28 08:46:12;;;;;;;6.55;1.75;;;;;;;20.74;38.54;102065.56;5133589;27;20034;-62
2022/05/28 08:48:49;;;;;;;4.72;1.30;;;;;;;20.79;38.18;102062.38;5133438;27;20024;-61
2022/05/28 08:51:34;;;;;;;7.32;1.55;;;;;;;20.84;37.89;102060.97;5133617;27;20051;-63
2022/05/28 08:54:43;;;;;;;6.43;1.33;;;;;;;21.03;38.41;102060.06;5133893;27;20393;-63
2022/05/28 08:57:14;;;;;;;6.57;1.10;;;;;;;21.25;37.94;102061.63;5121781;27;20036;-63
2022/05/28 08:59:57;;;;;;;5.88;1.77;;;;;;;21.50;38.23;102062.81;5131857;27;20231;-63
2022/05/28 09:02:37;;;;;;;3.35;1.42;;;;;;;21.72;38.06;102065.19;5133647;27;20039;-62
2022/05/28 09:05:07;;;;;;;5.82;1.42;;;;;;;21.82;37.32;102073.34;5132864;27;20066;-61
2022/05/28 09:07:34;;;;;;;9.50;1.73;;;;;;;21.73;37.22;102069.63;5133295;27;20055;-64
2022/05/28 09:10:01;;;;;;;9.10;1.77;;;;;;;21.63;37.10;102073.44;5115318;27;20035;-62
2022/05/28 09:12:31;;;;;;;4.78;1.40;;;;;;;21.54;36.66;102075.16;5133472;27;20058;-62
2022/05/28 09:14:59;;;;;;;3.08;1.15;;;;;;;21.50;36.68;102065.56;5119021;27;20043;-63
2022/05/28 09:17:27;;;;;;;6.20;1.60;;;;;;;21.51;36.72;102062.66;5133105;27;20047;-61
2022/05/28 09:20:00;;;;;;;4.18;1.58;;;;;;;21.50;36.72;102060.09;5133711;27;20066;-62
2022/05/28 09:22:26;;;;;;;8.30;1.70;;;;;;;21.51;36.88;102070.88;5119720;27;20399;-63
2022/05/28 09:24:55;;;;;;;16.48;1.52;;;;;;;21.54;36.26;102066.97;5133439;27;20439;-61
2022/05/28 09:27:36;;;;;;;5.18;1.40;;;;;;;21.58;35.87;102062.09;5132685;27;20051;-62
2022/05/28 09:30:07;;;;;;;4.05;1.30;;;;;;;21.62;35.52;102058.91;5125797;27;20047;-62
2022/05/28 09:32:34;;;;;;;3.35;1.10;;;;;;;21.66;35.28;102057.59;5133113;27;20035;-62
2022/05/28 09:35:19;;;;;;;6.45;1.35;;;;;;;21.74;35.27;102045.88;5133238;27;20047;-61
2022/05/28 09:37:52;;;;;;;;;;;;;;;21.90;35.63;102059.75;5133697;27;20050;-62
2022/05/28 09:40:38;;;;;;;3.63;1.00;;;;;;;22.03;34.96;102043.88;5133409;27;19976;-62
2022/05/28 09:43:25;;;;;;;5.53;1.25;;;;;;;22.09;34.56;102048.72;5133272;27;20500;-62
2022/05/28 09:46:10;;;;;;;6.00;1.23;;;;;;;22.04;34.42;102047.47;5133767;27;20042;-62
2022/05/28 09:48:38;;;;;;;7.72;1.35;;;;;;;21.97;34.47;102054.53;5123173;27;20126;-61
2022/05/28 09:51:21;;;;;;;7.15;2.17;;;;;;;21.91;34.33;102056.00;5132455;27;20512;-61
2022/05/28 09:54:20;;;;;;;4.30;1.40;;;;;;;21.92;34.25;102048.66;5132478;27;20034;-63
2022/05/28 09:56:50;;;;;;;5.38;1.50;;;;;;;21.99;34.23;102045.16;5127187;27;20114;-63
2022/05/28 09:59:19;;;;;;;6.18;1.35;;;;;;;22.04;34.52;102040.09;5127932;27;20626;-60
2022/05/28 10:02:23;;;;;;;7.75;1.33;;;;;;;22.18;34.80;102045.03;5132586;27;20039;-60
2022/05/28 10:05:15;;;;;;;6.30;1.13;;;;;;;22.39;34.40;102039.28;5132335;27;20546;-60
2022/05/28 10:07:48;;;;;;;3.90;1.10;;;;;;;22.51;33.55;102042.66;5132036;27;20047;-59
2022/05/28 10:10:20;;;;;;;4.35;1.15;;;;;;;22.54;33.37;102030.50;5131991;27;20035;-59
2022/05/28 10:12:47;;;;;;;4.75;1.30;;;;;;;22.57;33.07;102031.06;5132725;27;20421;-60
2022/05/28 10:15:16;;;;;;;3.53;1.10;;;;;;;22.72;33.20;102039.56;5132218;27;20104;-61
2022/05/28 10:17:53;;;;;;;4.85;1.27;;;;;;;22.93;33.06;102023.66;5110192;28;20138;-61
2022/05/28 10:20:21;;;;;;;4.13;1.35;;;;;;;23.08;32.65;102029.44;5129409;28;20046;-60
2022/05/28 10:22:51;;;;;;;3.90;1.60;;;;;;;23.13;32.48;102027.91;5132154;28;20390;-60
2022/05/28 10:25:38;;;;;;;3.38;1.15;;;;;;;23.06;32.26;102029.59;5132339;28;20035;-61
2022/05/28 10:28:10;;;;;;;4.07;1.58;;;;;;;23.07;32.30;102028.56;5131776;28;20142;-60
2022/05/28 10:30:41;;;;;;;3.92;1.25;;;;;;;23.15;32.33;102014.06;5132063;28;20038;-60
2022/05/28 10:33:11;;;;;;;3.53;1.23;;;;;;;23.26;32.11;102024.75;5117999;28;20043;-60
2022/05/28 10:35:40;;;;;;;3.95;1.50;;;;;;;23.41;32.18;102030.47;5132436;28;20477;-61
2022/05/28 10:38:24;;;;;;;5.63;1.38;;;;;;;23.56;31.52;102011.53;5131702;28;20047;-61
2022/05/28 10:40:52;;;;;;;3.78;1.30;;;;;;;23.70;31.34;102019.97;5134410;27;20367;-59
2022/05/28 10:43:26;;;;;;;6.32;1.48;;;;;;;23.76;31.44;102018.47;5136036;27;20046;-61
2022/05/28 10:46:08;;;;;;;2.97;1.38;;;;;;;23.65;31.07;102019.63;5136489;27;20035;-60
2022/05/28 10:49:12;;;;;;;7.63;1.75;;;;;;;23.65;31.13;102027.00;5123338;27;20039;-60
2022/05/28 10:51:48;;;;;;;4.22;1.10;;;;;;;23.66;30.71;102013.13;5135882;27;20039;-61
2022/05/28 10:54:45;;;;;;;2.90;1.00;;;;;;;23.52;30.57;102018.34;5136321;27;20040;-61
2022/05/28 10:57:40;;;;;;;2.20;0.80;;;;;;;23.42;30.83;102026.69;5136757;27;20039;-61
2022/05/28 11:00:24;;;;;;;4.43;1.15;;;;;;;23.39;30.84;102025.16;5138270;27;20063;-61
2022/05/28 11:03:22;;;;;;;3.95;1.50;;;;;;;23.39;30.65;102027.88;5138342;27;20070;-61
2022/05/28 11:06:11;;;;;;;4.93;1.65;;;;;;;23.53;30.88;102006.34;5137618;27;20040;-61
2022/05/28 11:08:51;;;;;;;5.05;1.27;;;;;;;23.67;30.80;102012.09;5138577;27;20553;-63
2022/05/28 11:11:28;;;;;;;4.78;1.50;;;;;;;23.74;30.16;102007.66;5136304;27;20535;-63
2022/05/28 11:14:30;;;;;;;5.75;1.50;;;;;;;23.85;30.51;101994.69;5136602;27;20062;-61
2022/05/28 11:16:59;;;;;;;4.55;1.35;;;;;;;24.03;30.36;102004.50;5119202;27;20054;-59
2022/05/28 11:19:48;;;;;;;5.07;1.33;;;;;;;24.03;30.11;102004.50;5130610;27;20043;-60
2022/05/28 11:22:23;;;;;;;6.10;1.15;;;;;;;23.91;30.07;102010.47;5134859;27;20043;-60
2022/05/28 11:24:54;;;;;;;7.90;1.35;;;;;;;23.71;29.88;102008.00;5123686;27;20051;-60
2022/05/28 11:27:36;;;;;;;4.93;1.50;;;;;;;23.59;30.03;102002.97;5129835;27;20053;-60
2022/05/28 11:30:08;;;;;;;9.20;1.20;;;;;;;23.56;29.58;101995.09;5132381;27;20061;-60
2022/05/28 11:33:00;;;;;;;4.80;1.30;;;;;;;23.60;29.63;101997.31;5133540;27;20043;-60
2022/05/28 11:35:45;;;;;;;7.80;1.48;;;;;;;23.65;29.33;101994.94;5135021;27;20051;-61
2022/05/28 11:38:20;;;;;;;2.85;0.82;;;;;;;23.81;29.58;101983.19;5121438;27;20092;-60
2022/05/28 11:41:12;;;;;;;5.50;1.40;;;;;;;23.97;28.99;101983.22;5135455;27;20066;-60
2022/05/28 11:44:11;;;;;;;5.25;1.27;;;;;;;24.04;29.00;101976.03;5123928;27;20035;-59
2022/05/28 11:47:02;;;;;;;4.28;1.35;;;;;;;24.00;28.85;101977.38;5086010;27;20067;-60